sensor_id;sensor_type;location;lat;lon;timestamp;P1;durP1;ratioP1;P2;durP2;ratioP2
24233;SDS011;12365;43.554;1.388;2022-12-18T00:01:28;7.13;;;4.05;;
24233;SDS011;12365;43.554;1.388;2022-12-18T00:03:58;5.32;;;4.07;;
24233;SDS011;12365;43.554;1.388;2022-12-18T00:06:25;5.93;;;3.97;;
24233;SDS011;12365;43.554;1.388;2022-12-18T00:08:52;5.93;;;4.20;;
24233;SDS011;12365;43.554;1.388;2022-12-18T00:11:20;7.38;;;4.63;;
24233;SDS011;12365;43.554;1.388;2022-12-18T00:13:46;6.15;;;4.10;;
24233;SDS011;12365;43.554;1.388;2022-12-18T00:16:13;5.47;;;4.10;;
24233;SDS011;12365;43.554;1.388;2022-12-18T00:18:46;4.45;;;3.60;;
24233;SDS011;12365;43.554;1.388;2022-12-18T00:21:13;4.85;;;3.90;;
24233;SDS011;12365;43.554;1.388;2022-12-18T00:23:40;5.53;;;3.95;;
24233;SDS011;12365;43.554;1.388;2022-12-18T00:26:08;5.68;;;4.20;;
24233;SDS011;12365;43.554;1.388;2022-12-18T00:28:36;5.68;;;4.35;;
24233;SDS011;12365;43.554;1.388;2022-12-18T00:31:05;6.05;;;4.03;;
24233;SDS011;12365;43.554;1.388;2022-12-18T00:33:33;6.55;;;4.47;;
24233;SDS011;12365;43.554;1.388;2022-12-18T00:36:03;6.25;;;4.15;;
24233;SDS011;12365;43.554;1.388;2022-12-18T00:38:34;6.82;;;4.03;;
24233;SDS011;12365;43.554;1.388;2022-12-18T00:41:00;7.35;;;4.35;;
24233;SDS011;12365;43.554;1.388;2022-12-18T00:43:26;5.07;;;3.95;;
24233;SDS011;12365;43.554;1.388;2022-12-18T00:45:51;6.45;;;4.60;;
24233;SDS011;12365;43.554;1.388;2022-12-18T00:48:17;6.50;;;4.50;;
24233;SDS011;12365;43.554;1.388;2022-12-18T00:50:42;6.55;;;4.30;;
24233;SDS011;12365;43.554;1.388;2022-12-18T00:53:08;7.50;;;4.82;;
24233;SDS011;12365;43.554;1.388;2022-12-18T00:55:33;5.72;;;4.40;;
24233;SDS011;12365;43.554;1.388;2022-12-18T00:57:59;5.55;;;4.55;;
24233;SDS011;12365;43.554;1.388;2022-12-18T01:00:24;5.82;;;4.50;;
24233;SDS011;12365;43.554;1.388;2022-12-18T01:02:50;6.40;;;4.65;;
24233;SDS011;12365;43.554;1.388;2022-12-18T01:05:15;6.60;;;5.00;;
24233;SDS011;12365;43.554;1.388;2022-12-18T01:07:41;5.93;;;4.68;;
24233;SDS011;12365;43.554;1.388;2022-12-18T01:10:07;6.38;;;4.50;;
24233;SDS011;12365;43.554;1.388;2022-12-18T01:12:35;7.43;;;4.50;;
24233;SDS011;12365;43.554;1.388;2022-12-18T01:15:01;6.68;;;4.70;;
24233;SDS011;12365;43.554;1.388;2022-12-18T01:17:26;5.78;;;4.47;;
24233;SDS011;12365;43.554;1.388;2022-12-18T01:19:52;5.55;;;4.38;;
24233;SDS011;12365;43.554;1.388;2022-12-18T01:22:17;5.45;;;4.45;;
24233;SDS011;12365;43.554;1.388;2022-12-18T01:24:43;8.93;;;4.30;;
24233;SDS011;12365;43.554;1.388;2022-12-18T01:27:08;6.47;;;4.53;;
24233;SDS011;12365;43.554;1.388;2022-12-18T01:29:33;8.13;;;4.57;;
24233;SDS011;12365;43.554;1.388;2022-12-18T01:31:59;5.80;;;4.40;;
24233;SDS011;12365;43.554;1.388;2022-12-18T01:34:24;5.50;;;4.43;;
24233;SDS011;12365;43.554;1.388;2022-12-18T01:36:50;5.78;;;4.13;;
24233;SDS011;12365;43.554;1.388;2022-12-18T01:39:18;6.53;;;4.50;;
24233;SDS011;12365;43.554;1.388;2022-12-18T01:41:44;7.22;;;4.57;;
24233;SDS011;12365;43.554;1.388;2022-12-18T01:50:04;11.57;;;7.05;;
24233;SDS011;12365;43.554;1.388;2022-12-18T01:52:31;9.00;;;6.80;;
24233;SDS011;12365;43.554;1.388;2022-12-18T01:54:58;12.40;;;6.88;;
24233;SDS011;12365;43.554;1.388;2022-12-18T01:57:25;9.25;;;6.53;;
24233;SDS011;12365;43.554;1.388;2022-12-18T01:59:52;11.10;;;6.35;;
24233;SDS011;12365;43.554;1.388;2022-12-18T02:02:21;13.10;;;7.43;;
24233;SDS011;12365;43.554;1.388;2022-12-18T02:04:47;10.75;;;7.45;;
24233;SDS011;12365;43.554;1.388;2022-12-18T02:13:06;10.57;;;7.18;;
24233;SDS011;12365;43.554;1.388;2022-12-18T02:18:38;23.17;;;8.73;;
24233;SDS011;12365;43.554;1.388;2022-12-18T02:21:13;162.00;;;10.88;;
24233;SDS011;12365;43.554;1.388;2022-12-18T02:23:50;119.72;;;10.77;;
24233;SDS011;12365;43.554;1.388;2022-12-18T02:26:21;159.25;;;10.95;;
24233;SDS011;12365;43.554;1.388;2022-12-18T02:31:35;164.18;;;10.45;;
24233;SDS011;12365;43.554;1.388;2022-12-18T02:34:05;159.57;;;11.55;;
24233;SDS011;12365;43.554;1.388;2022-12-18T02:36:33;116.88;;;10.02;;
24233;SDS011;12365;43.554;1.388;2022-12-18T02:39:01;199.32;;;11.50;;
24233;SDS011;12365;43.554;1.388;2022-12-18T02:41:29;90.88;;;10.10;;
24233;SDS011;12365;43.554;1.388;2022-12-18T02:43:56;121.78;;;9.75;;
24233;SDS011;12365;43.554;1.388;2022-12-18T02:46:33;98.28;;;9.80;;
24233;SDS011;12365;43.554;1.388;2022-12-18T02:49:06;102.72;;;9.40;;
24233;SDS011;12365;43.554;1.388;2022-12-18T02:54:21;79.10;;;8.70;;
24233;SDS011;12365;43.554;1.388;2022-12-18T02:57:33;90.90;;;8.45;;
24233;SDS011;12365;43.554;1.388;2022-12-18T02:59:59;28.23;;;7.57;;
24233;SDS011;12365;43.554;1.388;2022-12-18T03:05:13;11.43;;;6.85;;
24233;SDS011;12365;43.554;1.388;2022-12-18T03:07:45;9.98;;;7.20;;
24233;SDS011;12365;43.554;1.388;2022-12-18T03:10:12;9.57;;;6.97;;
24233;SDS011;12365;43.554;1.388;2022-12-18T03:12:51;9.68;;;6.80;;
24233;SDS011;12365;43.554;1.388;2022-12-18T03:15:21;9.80;;;7.07;;
24233;SDS011;12365;43.554;1.388;2022-12-18T03:17:55;19.63;;;8.05;;
24233;SDS011;12365;43.554;1.388;2022-12-18T03:20:28;20.40;;;8.77;;
24233;SDS011;12365;43.554;1.388;2022-12-18T03:22:57;21.23;;;8.90;;
24233;SDS011;12365;43.554;1.388;2022-12-18T03:25:38;12.23;;;8.38;;
24233;SDS011;12365;43.554;1.388;2022-12-18T03:28:07;20.10;;;8.77;;
24233;SDS011;12365;43.554;1.388;2022-12-18T03:30:37;17.50;;;8.90;;
24233;SDS011;12365;43.554;1.388;2022-12-18T03:35:37;15.65;;;8.77;;
24233;SDS011;12365;43.554;1.388;2022-12-18T03:38:06;18.75;;;8.63;;
24233;SDS011;12365;43.554;1.388;2022-12-18T03:40:41;30.58;;;8.85;;
24233;SDS011;12365;43.554;1.388;2022-12-18T03:46:25;10.50;;;7.13;;
24233;SDS011;12365;43.554;1.388;2022-12-18T03:49:25;10.85;;;7.20;;
24233;SDS011;12365;43.554;1.388;2022-12-18T03:52:02;10.10;;;6.90;;
24233;SDS011;12365;43.554;1.388;2022-12-18T03:54:29;10.13;;;6.65;;
24233;SDS011;12365;43.554;1.388;2022-12-18T03:57:13;12.63;;;6.32;;
24233;SDS011;12365;43.554;1.388;2022-12-18T03:59:42;8.60;;;5.65;;
24233;SDS011;12365;43.554;1.388;2022-12-18T04:02:11;7.88;;;5.32;;
24233;SDS011;12365;43.554;1.388;2022-12-18T04:04:37;6.55;;;4.70;;
24233;SDS011;12365;43.554;1.388;2022-12-18T04:07:04;8.48;;;4.60;;
24233;SDS011;12365;43.554;1.388;2022-12-18T04:09:31;5.43;;;4.20;;
24233;SDS011;12365;43.554;1.388;2022-12-18T04:11:59;7.30;;;4.53;;
24233;SDS011;12365;43.554;1.388;2022-12-18T04:14:24;5.75;;;4.20;;
24233;SDS011;12365;43.554;1.388;2022-12-18T04:16:50;5.47;;;3.88;;
24233;SDS011;12365;43.554;1.388;2022-12-18T04:19:16;8.25;;;4.00;;
24233;SDS011;12365;43.554;1.388;2022-12-18T04:21:41;6.82;;;4.18;;
24233;SDS011;12365;43.554;1.388;2022-12-18T04:24:07;6.57;;;3.85;;
24233;SDS011;12365;43.554;1.388;2022-12-18T04:26:32;7.38;;;4.10;;
24233;SDS011;12365;43.554;1.388;2022-12-18T04:28:57;5.43;;;3.85;;
24233;SDS011;12365;43.554;1.388;2022-12-18T04:31:23;5.65;;;3.70;;
24233;SDS011;12365;43.554;1.388;2022-12-18T04:33:48;5.78;;;3.92;;
24233;SDS011;12365;43.554;1.388;2022-12-18T04:36:14;8.38;;;4.10;;
24233;SDS011;12365;43.554;1.388;2022-12-18T04:38:39;5.43;;;4.00;;
24233;SDS011;12365;43.554;1.388;2022-12-18T04:41:04;5.65;;;4.22;;
24233;SDS011;12365;43.554;1.388;2022-12-18T04:43:30;8.07;;;4.55;;
24233;SDS011;12365;43.554;1.388;2022-12-18T04:46:04;5.68;;;4.10;;
24233;SDS011;12365;43.554;1.388;2022-12-18T04:48:30;6.05;;;4.40;;
24233;SDS011;12365;43.554;1.388;2022-12-18T04:50:56;6.93;;;4.80;;
24233;SDS011;12365;43.554;1.388;2022-12-18T04:53:21;7.10;;;4.70;;
24233;SDS011;12365;43.554;1.388;2022-12-18T04:55:46;5.63;;;4.03;;
24233;SDS011;12365;43.554;1.388;2022-12-18T04:58:12;8.00;;;5.00;;
24233;SDS011;12365;43.554;1.388;2022-12-18T05:00:37;7.32;;;5.15;;
24233;SDS011;12365;43.554;1.388;2022-12-18T05:03:03;7.20;;;5.07;;
24233;SDS011;12365;43.554;1.388;2022-12-18T05:05:28;7.00;;;4.95;;
24233;SDS011;12365;43.554;1.388;2022-12-18T05:07:53;8.50;;;5.32;;
24233;SDS011;12365;43.554;1.388;2022-12-18T05:10:19;8.30;;;5.65;;
24233;SDS011;12365;43.554;1.388;2022-12-18T05:12:44;7.70;;;5.30;;
24233;SDS011;12365;43.554;1.388;2022-12-18T05:15:31;6.50;;;4.17;;
24233;SDS011;12365;43.554;1.388;2022-12-18T05:17:57;6.30;;;5.07;;
24233;SDS011;12365;43.554;1.388;2022-12-18T05:20:24;7.47;;;4.97;;
24233;SDS011;12365;43.554;1.388;2022-12-18T05:22:50;9.70;;;5.22;;
24233;SDS011;12365;43.554;1.388;2022-12-18T05:25:16;7.90;;;4.90;;
24233;SDS011;12365;43.554;1.388;2022-12-18T05:27:42;9.63;;;5.60;;
24233;SDS011;12365;43.554;1.388;2022-12-18T05:30:07;10.65;;;5.32;;
24233;SDS011;12365;43.554;1.388;2022-12-18T05:32:33;11.45;;;5.35;;
24233;SDS011;12365;43.554;1.388;2022-12-18T05:34:59;12.30;;;5.85;;
24233;SDS011;12365;43.554;1.388;2022-12-18T05:37:24;7.63;;;5.07;;
24233;SDS011;12365;43.554;1.388;2022-12-18T05:39:50;6.85;;;4.72;;
24233;SDS011;12365;43.554;1.388;2022-12-18T05:42:15;9.23;;;5.15;;
24233;SDS011;12365;43.554;1.388;2022-12-18T05:44:40;9.07;;;5.28;;
24233;SDS011;12365;43.554;1.388;2022-12-18T05:47:06;6.53;;;4.90;;
24233;SDS011;12365;43.554;1.388;2022-12-18T05:49:31;6.47;;;4.65;;
24233;SDS011;12365;43.554;1.388;2022-12-18T05:51:57;9.27;;;4.85;;
24233;SDS011;12365;43.554;1.388;2022-12-18T05:54:22;6.82;;;4.72;;
24233;SDS011;12365;43.554;1.388;2022-12-18T05:56:48;6.75;;;4.50;;
24233;SDS011;12365;43.554;1.388;2022-12-18T05:59:13;9.82;;;5.13;;
24233;SDS011;12365;43.554;1.388;2022-12-18T06:01:38;10.55;;;4.93;;
24233;SDS011;12365;43.554;1.388;2022-12-18T06:04:04;9.95;;;4.88;;
24233;SDS011;12365;43.554;1.388;2022-12-18T06:06:29;8.63;;;4.95;;
24233;SDS011;12365;43.554;1.388;2022-12-18T06:08:55;6.57;;;4.50;;
24233;SDS011;12365;43.554;1.388;2022-12-18T06:11:22;8.35;;;5.15;;
24233;SDS011;12365;43.554;1.388;2022-12-18T06:13:49;8.15;;;5.05;;
24233;SDS011;12365;43.554;1.388;2022-12-18T06:16:16;8.27;;;4.57;;
24233;SDS011;12365;43.554;1.388;2022-12-18T06:18:42;6.65;;;4.70;;
24233;SDS011;12365;43.554;1.388;2022-12-18T06:21:07;6.75;;;4.60;;
24233;SDS011;12365;43.554;1.388;2022-12-18T06:23:32;7.32;;;4.65;;
24233;SDS011;12365;43.554;1.388;2022-12-18T06:25:58;6.05;;;4.35;;
24233;SDS011;12365;43.554;1.388;2022-12-18T06:28:23;7.60;;;4.57;;
24233;SDS011;12365;43.554;1.388;2022-12-18T06:30:50;8.23;;;4.70;;
24233;SDS011;12365;43.554;1.388;2022-12-18T06:33:16;20.13;;;12.80;;
24233;SDS011;12365;43.554;1.388;2022-12-18T06:35:41;16.65;;;10.38;;
24233;SDS011;12365;43.554;1.388;2022-12-18T06:38:07;15.45;;;10.10;;
24233;SDS011;12365;43.554;1.388;2022-12-18T06:40:32;9.05;;;5.53;;
24233;SDS011;12365;43.554;1.388;2022-12-18T06:42:58;5.28;;;3.90;;
24233;SDS011;12365;43.554;1.388;2022-12-18T06:45:23;6.75;;;4.60;;
24233;SDS011;12365;43.554;1.388;2022-12-18T06:47:49;13.15;;;6.90;;
24233;SDS011;12365;43.554;1.388;2022-12-18T06:50:15;9.90;;;8.15;;
24233;SDS011;12365;43.554;1.388;2022-12-18T06:52:40;6.75;;;4.50;;
24233;SDS011;12365;43.554;1.388;2022-12-18T06:55:09;5.63;;;4.35;;
24233;SDS011;12365;43.554;1.388;2022-12-18T06:57:35;7.07;;;4.40;;
24233;SDS011;12365;43.554;1.388;2022-12-18T07:00:01;6.70;;;4.65;;
24233;SDS011;12365;43.554;1.388;2022-12-18T07:02:29;6.90;;;4.60;;
24233;SDS011;12365;43.554;1.388;2022-12-18T07:04:54;9.55;;;4.15;;
24233;SDS011;12365;43.554;1.388;2022-12-18T07:07:20;7.43;;;3.80;;
24233;SDS011;12365;43.554;1.388;2022-12-18T07:09:45;7.45;;;4.38;;
24233;SDS011;12365;43.554;1.388;2022-12-18T07:12:10;5.32;;;4.07;;
24233;SDS011;12365;43.554;1.388;2022-12-18T07:14:36;9.25;;;4.95;;
24233;SDS011;12365;43.554;1.388;2022-12-18T07:17:01;7.22;;;5.28;;
24233;SDS011;12365;43.554;1.388;2022-12-18T07:19:27;6.18;;;4.00;;
24233;SDS011;12365;43.554;1.388;2022-12-18T07:21:52;13.52;;;10.20;;
24233;SDS011;12365;43.554;1.388;2022-12-18T07:24:17;7.75;;;4.90;;
24233;SDS011;12365;43.554;1.388;2022-12-18T07:26:45;7.93;;;4.68;;
24233;SDS011;12365;43.554;1.388;2022-12-18T07:29:11;8.30;;;4.68;;
24233;SDS011;12365;43.554;1.388;2022-12-18T07:31:37;6.57;;;4.38;;
24233;SDS011;12365;43.554;1.388;2022-12-18T07:34:02;5.90;;;3.90;;
24233;SDS011;12365;43.554;1.388;2022-12-18T07:36:28;7.47;;;4.88;;
24233;SDS011;12365;43.554;1.388;2022-12-18T07:38:53;6.00;;;4.20;;
24233;SDS011;12365;43.554;1.388;2022-12-18T07:41:19;8.90;;;5.93;;
24233;SDS011;12365;43.554;1.388;2022-12-18T07:43:45;7.50;;;5.30;;
24233;SDS011;12365;43.554;1.388;2022-12-18T07:46:11;7.72;;;4.90;;
24233;SDS011;12365;43.554;1.388;2022-12-18T07:48:44;6.55;;;5.20;;
24233;SDS011;12365;43.554;1.388;2022-12-18T07:51:10;9.32;;;4.20;;
24233;SDS011;12365;43.554;1.388;2022-12-18T07:53:35;6.60;;;4.53;;
24233;SDS011;12365;43.554;1.388;2022-12-18T07:56:03;7.85;;;4.32;;
24233;SDS011;12365;43.554;1.388;2022-12-18T07:58:31;10.00;;;7.45;;
24233;SDS011;12365;43.554;1.388;2022-12-18T08:01:04;8.05;;;5.03;;
24233;SDS011;12365;43.554;1.388;2022-12-18T08:03:31;7.50;;;5.10;;
24233;SDS011;12365;43.554;1.388;2022-12-18T08:06:04;11.50;;;5.53;;
24233;SDS011;12365;43.554;1.388;2022-12-18T08:08:31;7.82;;;4.78;;
24233;SDS011;12365;43.554;1.388;2022-12-18T08:10:57;8.50;;;3.95;;
24233;SDS011;12365;43.554;1.388;2022-12-18T08:13:23;6.53;;;4.80;;
24233;SDS011;12365;43.554;1.388;2022-12-18T08:15:56;5.72;;;4.32;;
24233;SDS011;12365;43.554;1.388;2022-12-18T08:18:29;5.85;;;4.22;;
24233;SDS011;12365;43.554;1.388;2022-12-18T08:20:57;6.30;;;3.88;;
24233;SDS011;12365;43.554;1.388;2022-12-18T08:23:23;7.03;;;4.32;;
24233;SDS011;12365;43.554;1.388;2022-12-18T08:25:48;6.10;;;4.15;;
24233;SDS011;12365;43.554;1.388;2022-12-18T08:28:16;6.55;;;3.60;;
24233;SDS011;12365;43.554;1.388;2022-12-18T08:30:41;6.60;;;3.55;;
24233;SDS011;12365;43.554;1.388;2022-12-18T08:33:07;4.85;;;3.70;;
24233;SDS011;12365;43.554;1.388;2022-12-18T08:35:35;9.93;;;4.35;;
24233;SDS011;12365;43.554;1.388;2022-12-18T08:38:01;4.82;;;3.45;;
24233;SDS011;12365;43.554;1.388;2022-12-18T08:40:27;4.43;;;3.13;;
24233;SDS011;12365;43.554;1.388;2022-12-18T08:42:53;7.13;;;4.47;;
24233;SDS011;12365;43.554;1.388;2022-12-18T08:45:37;4.72;;;3.65;;
24233;SDS011;12365;43.554;1.388;2022-12-18T08:48:02;4.63;;;3.53;;
24233;SDS011;12365;43.554;1.388;2022-12-18T08:50:28;5.50;;;3.78;;
24233;SDS011;12365;43.554;1.388;2022-12-18T08:52:53;6.60;;;4.03;;
24233;SDS011;12365;43.554;1.388;2022-12-18T08:55:19;4.05;;;3.30;;
24233;SDS011;12365;43.554;1.388;2022-12-18T08:57:47;5.85;;;4.07;;
24233;SDS011;12365;43.554;1.388;2022-12-18T09:00:14;5.70;;;3.83;;
24233;SDS011;12365;43.554;1.388;2022-12-18T09:02:40;5.97;;;3.42;;
24233;SDS011;12365;43.554;1.388;2022-12-18T09:05:05;5.60;;;3.58;;
24233;SDS011;12365;43.554;1.388;2022-12-18T09:07:31;5.30;;;3.70;;
24233;SDS011;12365;43.554;1.388;2022-12-18T09:09:56;6.22;;;3.60;;
24233;SDS011;12365;43.554;1.388;2022-12-18T09:12:22;5.57;;;3.30;;
24233;SDS011;12365;43.554;1.388;2022-12-18T09:14:47;5.60;;;3.38;;
24233;SDS011;12365;43.554;1.388;2022-12-18T09:17:14;4.53;;;3.20;;
24233;SDS011;12365;43.554;1.388;2022-12-18T09:19:39;4.13;;;3.03;;
24233;SDS011;12365;43.554;1.388;2022-12-18T09:22:05;7.05;;;3.42;;
24233;SDS011;12365;43.554;1.388;2022-12-18T09:24:30;5.32;;;3.50;;
24233;SDS011;12365;43.554;1.388;2022-12-18T09:26:56;5.60;;;3.40;;
24233;SDS011;12365;43.554;1.388;2022-12-18T09:29:21;6.47;;;3.38;;
24233;SDS011;12365;43.554;1.388;2022-12-18T09:31:46;7.03;;;3.53;;
24233;SDS011;12365;43.554;1.388;2022-12-18T09:34:12;6.13;;;3.22;;
24233;SDS011;12365;43.554;1.388;2022-12-18T09:36:37;5.05;;;3.30;;
24233;SDS011;12365;43.554;1.388;2022-12-18T09:39:03;5.30;;;3.30;;
24233;SDS011;12365;43.554;1.388;2022-12-18T09:44:01;10.68;;;3.72;;
24233;SDS011;12365;43.554;1.388;2022-12-18T09:46:35;4.72;;;3.08;;
24233;SDS011;12365;43.554;1.388;2022-12-18T09:49:06;7.32;;;3.10;;
24233;SDS011;12365;43.554;1.388;2022-12-18T09:51:54;6.57;;;3.20;;
24233;SDS011;12365;43.554;1.388;2022-12-18T09:54:26;5.13;;;3.28;;
24233;SDS011;12365;43.554;1.388;2022-12-18T09:56:58;5.40;;;2.90;;
24233;SDS011;12365;43.554;1.388;2022-12-18T09:59:25;6.57;;;3.20;;
24233;SDS011;12365;43.554;1.388;2022-12-18T10:01:56;5.78;;;3.50;;
24233;SDS011;12365;43.554;1.388;2022-12-18T10:04:21;6.97;;;3.33;;
24233;SDS011;12365;43.554;1.388;2022-12-18T10:07:01;5.35;;;3.20;;
24233;SDS011;12365;43.554;1.388;2022-12-18T10:12:32;4.93;;;2.88;;
24233;SDS011;12365;43.554;1.388;2022-12-18T10:15:14;4.40;;;2.78;;
24233;SDS011;12365;43.554;1.388;2022-12-18T10:17:51;5.43;;;2.90;;
24233;SDS011;12365;43.554;1.388;2022-12-18T10:20:29;4.15;;;2.80;;
24233;SDS011;12365;43.554;1.388;2022-12-18T10:28:25;3.25;;;2.50;;
24233;SDS011;12365;43.554;1.388;2022-12-18T10:30:51;5.20;;;2.30;;
24233;SDS011;12365;43.554;1.388;2022-12-18T10:33:18;2.97;;;2.20;;
24233;SDS011;12365;43.554;1.388;2022-12-18T10:35:46;3.03;;;2.30;;
24233;SDS011;12365;43.554;1.388;2022-12-18T10:43:15;4.38;;;2.05;;
24233;SDS011;12365;43.554;1.388;2022-12-18T10:45:56;3.85;;;2.40;;
24233;SDS011;12365;43.554;1.388;2022-12-18T10:48:22;4.72;;;2.40;;
24233;SDS011;12365;43.554;1.388;2022-12-18T10:50:49;3.85;;;2.47;;
24233;SDS011;12365;43.554;1.388;2022-12-18T10:53:21;3.42;;;2.20;;
24233;SDS011;12365;43.554;1.388;2022-12-18T10:55:49;4.40;;;2.00;;
24233;SDS011;12365;43.554;1.388;2022-12-18T10:58:35;4.55;;;2.40;;
24233;SDS011;12365;43.554;1.388;2022-12-18T11:01:16;4.75;;;2.10;;
24233;SDS011;12365;43.554;1.388;2022-12-18T11:03:45;3.35;;;2.40;;
24233;SDS011;12365;43.554;1.388;2022-12-18T11:08:38;4.28;;;2.40;;
24233;SDS011;12365;43.554;1.388;2022-12-18T11:11:07;3.92;;;2.20;;
24233;SDS011;12365;43.554;1.388;2022-12-18T11:13:41;3.65;;;2.20;;
24233;SDS011;12365;43.554;1.388;2022-12-18T11:16:19;4.43;;;2.55;;
24233;SDS011;12365;43.554;1.388;2022-12-18T11:18:45;3.13;;;2.30;;
24233;SDS011;12365;43.554;1.388;2022-12-18T11:21:11;5.25;;;2.30;;
24233;SDS011;12365;43.554;1.388;2022-12-18T11:23:44;2.97;;;2.08;;
24233;SDS011;12365;43.554;1.388;2022-12-18T11:26:14;3.47;;;2.08;;
24233;SDS011;12365;43.554;1.388;2022-12-18T11:33:33;2.55;;;2.03;;
24233;SDS011;12365;43.554;1.388;2022-12-18T11:36:00;3.70;;;2.08;;
24233;SDS011;12365;43.554;1.388;2022-12-18T11:38:39;3.30;;;2.00;;
24233;SDS011;12365;43.554;1.388;2022-12-18T11:43:45;3.25;;;2.20;;
24233;SDS011;12365;43.554;1.388;2022-12-18T11:46:26;3.35;;;2.05;;
24233;SDS011;12365;43.554;1.388;2022-12-18T11:49:01;4.10;;;2.13;;
24233;SDS011;12365;43.554;1.388;2022-12-18T11:51:41;2.65;;;2.08;;
24233;SDS011;12365;43.554;1.388;2022-12-18T11:54:29;3.17;;;1.90;;
24233;SDS011;12365;43.554;1.388;2022-12-18T12:07:53;2.53;;;2.00;;
24233;SDS011;12365;43.554;1.388;2022-12-18T12:10:34;5.03;;;2.00;;
24233;SDS011;12365;43.554;1.388;2022-12-18T12:21:33;3.07;;;2.07;;
24233;SDS011;12365;43.554;1.388;2022-12-18T12:24:12;2.70;;;2.10;;
24233;SDS011;12365;43.554;1.388;2022-12-18T12:26:48;3.25;;;2.10;;
24233;SDS011;12365;43.554;1.388;2022-12-18T12:29:45;5.60;;;2.00;;
24233;SDS011;12365;43.554;1.388;2022-12-18T12:38:05;3.33;;;2.20;;
24233;SDS011;12365;43.554;1.388;2022-12-18T12:40:37;3.27;;;2.20;;
24233;SDS011;12365;43.554;1.388;2022-12-18T12:43:19;3.75;;;2.38;;
24233;SDS011;12365;43.554;1.388;2022-12-18T12:51:00;3.05;;;2.50;;
24233;SDS011;12365;43.554;1.388;2022-12-18T12:53:33;5.05;;;2.65;;
24233;SDS011;12365;43.554;1.388;2022-12-18T12:56:02;5.60;;;2.80;;
24233;SDS011;12365;43.554;1.388;2022-12-18T12:58:34;4.47;;;2.80;;
24233;SDS011;12365;43.554;1.388;2022-12-18T13:08:56;7.10;;;2.80;;
24233;SDS011;12365;43.554;1.388;2022-12-18T13:11:37;4.25;;;2.67;;
24233;SDS011;12365;43.554;1.388;2022-12-18T13:14:22;5.38;;;2.63;;
24233;SDS011;12365;43.554;1.388;2022-12-18T13:17:13;6.13;;;2.58;;
24233;SDS011;12365;43.554;1.388;2022-12-18T13:20:02;5.68;;;2.55;;
24233;SDS011;12365;43.554;1.388;2022-12-18T13:22:52;4.95;;;2.90;;
24233;SDS011;12365;43.554;1.388;2022-12-18T13:25:33;4.80;;;2.55;;
24233;SDS011;12365;43.554;1.388;2022-12-18T13:28:23;7.18;;;2.55;;
24233;SDS011;12365;43.554;1.388;2022-12-18T13:34:24;5.65;;;3.10;;
24233;SDS011;12365;43.554;1.388;2022-12-18T13:36:52;5.70;;;2.80;;
24233;SDS011;12365;43.554;1.388;2022-12-18T13:41:48;4.40;;;2.90;;
24233;SDS011;12365;43.554;1.388;2022-12-18T13:47:01;4.70;;;3.00;;
24233;SDS011;12365;43.554;1.388;2022-12-18T13:49:36;4.90;;;3.20;;
24233;SDS011;12365;43.554;1.388;2022-12-18T13:52:20;5.20;;;2.95;;
24233;SDS011;12365;43.554;1.388;2022-12-18T13:54:51;4.15;;;2.80;;
24233;SDS011;12365;43.554;1.388;2022-12-18T13:59:53;4.45;;;3.15;;
24233;SDS011;12365;43.554;1.388;2022-12-18T14:02:22;6.80;;;3.00;;
24233;SDS011;12365;43.554;1.388;2022-12-18T14:04:49;4.77;;;3.00;;
24233;SDS011;12365;43.554;1.388;2022-12-18T14:07:19;6.85;;;2.90;;
24233;SDS011;12365;43.554;1.388;2022-12-18T14:09:59;3.10;;;2.60;;
24233;SDS011;12365;43.554;1.388;2022-12-18T14:12:32;5.00;;;2.80;;
24233;SDS011;12365;43.554;1.388;2022-12-18T14:17:50;4.38;;;3.10;;
24233;SDS011;12365;43.554;1.388;2022-12-18T14:20:19;5.50;;;2.95;;
24233;SDS011;12365;43.554;1.388;2022-12-18T14:22:45;3.45;;;2.72;;
24233;SDS011;12365;43.554;1.388;2022-12-18T14:27:41;4.45;;;2.80;;
24233;SDS011;12365;43.554;1.388;2022-12-18T14:33:00;4.30;;;2.92;;
24233;SDS011;12365;43.554;1.388;2022-12-18T14:35:30;6.20;;;3.13;;
24233;SDS011;12365;43.554;1.388;2022-12-18T14:38:10;3.63;;;2.75;;
24233;SDS011;12365;43.554;1.388;2022-12-18T14:40:57;6.28;;;3.05;;
24233;SDS011;12365;43.554;1.388;2022-12-18T14:43:23;8.32;;;2.97;;
24233;SDS011;12365;43.554;1.388;2022-12-18T14:45:48;4.05;;;2.55;;
24233;SDS011;12365;43.554;1.388;2022-12-18T14:50:43;7.55;;;3.30;;
24233;SDS011;12365;43.554;1.388;2022-12-18T14:55:58;6.20;;;3.20;;
24233;SDS011;12365;43.554;1.388;2022-12-18T14:58:23;3.58;;;2.90;;
24233;SDS011;12365;43.554;1.388;2022-12-18T15:00:49;5.00;;;3.05;;
24233;SDS011;12365;43.554;1.388;2022-12-18T15:03:18;6.55;;;2.95;;
24233;SDS011;12365;43.554;1.388;2022-12-18T15:05:46;5.40;;;3.20;;
24233;SDS011;12365;43.554;1.388;2022-12-18T15:08:32;5.35;;;3.10;;
24233;SDS011;12365;43.554;1.388;2022-12-18T15:11:00;5.45;;;3.00;;
24233;SDS011;12365;43.554;1.388;2022-12-18T15:13:26;6.72;;;2.80;;
24233;SDS011;12365;43.554;1.388;2022-12-18T15:15:55;6.00;;;3.13;;
24233;SDS011;12365;43.554;1.388;2022-12-18T15:18:32;7.35;;;2.95;;
24233;SDS011;12365;43.554;1.388;2022-12-18T15:20:59;4.55;;;2.72;;
24233;SDS011;12365;43.554;1.388;2022-12-18T15:26:12;5.75;;;2.83;;
24233;SDS011;12365;43.554;1.388;2022-12-18T15:28:55;4.28;;;2.63;;
24233;SDS011;12365;43.554;1.388;2022-12-18T15:31:23;6.40;;;2.95;;
24233;SDS011;12365;43.554;1.388;2022-12-18T15:36:18;4.20;;;2.63;;
24233;SDS011;12365;43.554;1.388;2022-12-18T15:38:47;4.30;;;2.75;;
24233;SDS011;12365;43.554;1.388;2022-12-18T15:41:14;8.02;;;3.10;;
24233;SDS011;12365;43.554;1.388;2022-12-18T15:43:41;5.93;;;2.80;;
24233;SDS011;12365;43.554;1.388;2022-12-18T15:46:14;12.43;;;3.20;;
24233;SDS011;12365;43.554;1.388;2022-12-18T15:48:42;6.22;;;2.72;;
24233;SDS011;12365;43.554;1.388;2022-12-18T15:53:58;6.45;;;2.92;;
24233;SDS011;12365;43.554;1.388;2022-12-18T15:56:26;5.85;;;2.80;;
24233;SDS011;12365;43.554;1.388;2022-12-18T15:59:14;8.43;;;2.92;;
24233;SDS011;12365;43.554;1.388;2022-12-18T16:01:42;5.35;;;2.60;;
24233;SDS011;12365;43.554;1.388;2022-12-18T16:04:10;7.72;;;2.67;;
24233;SDS011;12365;43.554;1.388;2022-12-18T16:06:38;7.13;;;2.90;;
24233;SDS011;12365;43.554;1.388;2022-12-18T16:09:03;5.00;;;2.70;;
24233;SDS011;12365;43.554;1.388;2022-12-18T16:11:30;6.78;;;2.55;;
24233;SDS011;12365;43.554;1.388;2022-12-18T16:14:15;4.95;;;3.00;;
24233;SDS011;12365;43.554;1.388;2022-12-18T16:16:52;6.25;;;2.70;;
24233;SDS011;12365;43.554;1.388;2022-12-18T16:19:19;4.38;;;2.50;;
24233;SDS011;12365;43.554;1.388;2022-12-18T16:21:46;5.70;;;2.70;;
24233;SDS011;12365;43.554;1.388;2022-12-18T16:24:16;3.70;;;2.60;;
24233;SDS011;12365;43.554;1.388;2022-12-18T16:26:43;8.32;;;3.10;;
24233;SDS011;12365;43.554;1.388;2022-12-18T16:29:09;6.50;;;2.70;;
24233;SDS011;12365;43.554;1.388;2022-12-18T16:31:35;5.38;;;2.65;;
24233;SDS011;12365;43.554;1.388;2022-12-18T16:34:15;5.55;;;3.05;;
24233;SDS011;12365;43.554;1.388;2022-12-18T16:36:49;5.38;;;3.30;;
24233;SDS011;12365;43.554;1.388;2022-12-18T16:39:15;6.32;;;3.00;;
24233;SDS011;12365;43.554;1.388;2022-12-18T16:41:40;9.23;;;2.97;;
24233;SDS011;12365;43.554;1.388;2022-12-18T16:44:06;6.50;;;3.00;;
24233;SDS011;12365;43.554;1.388;2022-12-18T16:46:31;9.05;;;3.10;;
24233;SDS011;12365;43.554;1.388;2022-12-18T16:48:57;7.05;;;3.20;;
24233;SDS011;12365;43.554;1.388;2022-12-18T16:51:24;8.02;;;3.25;;
24233;SDS011;12365;43.554;1.388;2022-12-18T16:53:50;28.23;;;18.08;;
24233;SDS011;12365;43.554;1.388;2022-12-18T16:56:17;281.83;;;148.07;;
24233;SDS011;12365;43.554;1.388;2022-12-18T16:58:42;206.30;;;126.30;;
24233;SDS011;12365;43.554;1.388;2022-12-18T17:01:09;38.92;;;24.33;;
24233;SDS011;12365;43.554;1.388;2022-12-18T17:03:35;14.23;;;9.57;;